TAF and METAR

Decoding for American and Canadian METARs and TAFs is not fully implemented.

Could not understand the following METAR

CYUS 171100Z AUTO 12005KT ////SM //// NCD 08/08 A2992
No TAF available for Shepherd Bay Arp